Stiles, Wisconsin
Current Conditions -  °F | °C
As of 10:35 PM on Saturday 22 Nov 2014 (Local Time) from KOCQ Reporting Station
Overcast Overcast  
Wind Chill: 37°   Ceiling: 300
Heat Index: 37°   Visibility: 0.25mi
Dew Point: 37°   Wind: 3mph
Humidity: 100%   Direction: 160°SSE
Pressure: 29.75"   Gusts: NA
Location:  44.9552°N, 88.0505°W
Report Text: KOCQ 230435Z AUTO 16003KT 1/4SM OVC003 03/03 A2975 RMK AO1 T00250025
Loading
Personal Weather Stations






























Interactive Weather Map New forecast layout! Learn more

10-Day Weather Forecast

Advertisements
Track Severe Weather on mobile